Time;durP1;ratioP1;P1;durP2;ratioP2;P2;SDS_P1;SDS_P2;PMS_P1;PMS_P2;Temp;Humidity;BMP_temperature;BMP_pressure;BME280_temperature;BME280_humidity;BME280_pressure;Samples;Min_cycle;Max_cycle;Signal;HPM_P1;HPM_P2
2021/11/11 00:01:05;;;;;;;10.23;3.15;;;20.30;99.90;;;;;;5087936;28;20114;-74
2021/11/11 00:03:32;;;;;;;9.35;1.13;;;20.30;99.90;;;;;;5084182;28;20032;-76
2021/11/11 00:06:00;;;;;;;4.85;1.20;;;20.30;99.90;;;;;;5084324;28;20047;-77
2021/11/11 00:08:27;;;;;;;5.32;1.25;;;20.30;99.90;;;;;;5087574;28;20023;-75
2021/11/11 00:10:54;;;;;;;3.28;0.93;;;20.30;99.90;;;;;;5087056;28;20066;-74
2021/11/11 00:13:22;;;;;;;7.70;1.73;;;20.20;99.90;;;;;;5086285;28;20098;-76
2021/11/11 00:15:50;;;;;;;8.70;1.70;;;20.30;99.90;;;;;;5081258;28;20081;-74
2021/11/11 00:18:18;;;;;;;4.85;1.30;;;20.30;99.90;;;;;;5090465;28;20039;-75
2021/11/11 00:20:46;;;;;;;11.32;1.40;;;20.40;99.90;;;;;;5087938;28;20106;-74
2021/11/11 00:23:14;;;;;;;7.97;1.45;;;20.40;99.90;;;;;;5083000;28;20040;-75
2021/11/11 00:25:42;;;;;;;4.65;1.00;;;20.50;99.90;;;;;;5083617;28;20474;-75
2021/11/11 00:28:09;;;;;;;3.85;1.05;;;20.40;99.90;;;;;;5079905;28;20563;-74
2021/11/11 00:30:37;;;;;;;7.63;1.52;;;20.40;99.90;;;;;;5088527;28;20478;-75
2021/11/11 00:33:04;;;;;;;8.85;1.52;;;20.40;99.90;;;;;;5091193;28;20083;-75
2021/11/11 00:35:32;;;;;;;7.90;1.25;;;20.40;99.90;;;;;;5086622;28;20426;-75
2021/11/11 00:38:00;;;;;;;4.82;1.65;;;20.40;99.90;;;;;;5086662;28;20052;-76
2021/11/11 00:40:29;;;;;;;3.25;1.10;;;20.30;99.90;;;;;;5082285;28;20074;-74
2021/11/11 00:42:57;;;;;;;4.47;1.08;;;20.30;99.90;;;;;;5081591;28;20028;-76
2021/11/11 00:45:25;;;;;;;6.80;1.80;;;20.30;99.90;;;;;;5084677;28;20103;-73
2021/11/11 00:47:54;;;;;;;5.85;1.13;;;20.20;99.90;;;;;;5088722;28;20028;-75
2021/11/11 00:50:24;;;;;;;9.02;1.20;;;20.10;99.90;;;;;;5087174;28;20084;-74
2021/11/11 00:52:52;;;;;;;6.47;1.20;;;20.10;99.90;;;;;;5066298;28;20078;-74
2021/11/11 00:55:20;;;;;;;6.32;1.40;;;20.10;99.90;;;;;;5082763;28;20070;-73
2021/11/11 00:57:48;;;;;;;6.22;1.25;;;20.20;99.90;;;;;;5084442;28;20028;-73
2021/11/11 01:00:17;;;;;;;10.13;1.50;;;20.20;99.90;;;;;;5093157;28;20024;-75
2021/11/11 01:02:46;;;;;;;11.00;1.65;;;20.30;99.90;;;;;;5092273;28;20130;-76
2021/11/11 01:05:15;;;;;;;7.85;1.25;;;20.20;99.90;;;;;;5093385;28;20039;-75
2021/11/11 01:07:42;;;;;;;6.13;1.70;;;20.20;99.90;;;;;;5094269;28;20020;-75
2021/11/11 01:10:13;;;;;;;14.60;1.75;;;20.30;99.90;;;;;;5094344;28;20139;-74
2021/11/11 01:12:41;;;;;;;3.33;1.20;;;20.30;99.90;;;;;;5092711;28;20483;-75
2021/11/11 01:15:13;;;;;;;8.18;2.35;;;20.40;99.90;;;;;;5082808;28;20085;-75
2021/11/11 01:17:40;;;;;;;12.07;1.33;;;20.30;99.90;;;;;;5090070;28;20024;-76
2021/11/11 01:20:09;;;;;;;6.80;1.25;;;20.40;99.90;;;;;;5086637;28;20101;-74
2021/11/11 01:22:38;;;;;;;7.30;1.77;;;20.30;99.90;;;;;;5094218;28;20016;-76
2021/11/11 01:25:07;;;;;;;8.65;2.28;;;20.30;99.90;;;;;;5092435;28;20024;-75
2021/11/11 01:27:35;;;;;;;5.85;1.23;;;20.20;99.90;;;;;;5092751;28;20028;-74
2021/11/11 01:30:03;;;;;;;11.95;1.83;;;20.20;99.90;;;;;;5076581;28;20028;-73
2021/11/11 01:32:31;;;;;;;7.68;1.13;;;20.10;99.90;;;;;;5078220;28;20480;-74
2021/11/11 01:34:58;;;;;;;7.38;1.33;;;20.00;99.90;;;;;;5092588;28;20485;-74
2021/11/11 01:37:25;;;;;;;4.75;1.10;;;19.90;99.90;;;;;;5089755;28;20037;-74
2021/11/11 01:39:53;;;;;;;9.10;2.45;;;19.90;99.90;;;;;;5085836;28;20029;-74
2021/11/11 01:42:20;;;;;;;7.93;1.23;;;19.90;99.90;;;;;;5067684;28;20063;-74
2021/11/11 01:44:52;;;;;;;6.40;1.17;;;19.80;99.90;;;;;;5088086;28;20035;-74
2021/11/11 01:47:20;;;;;;;7.68;1.20;;;19.70;99.90;;;;;;5083889;28;20063;-74
2021/11/11 01:49:48;;;;;;;4.93;2.05;;;19.70;99.90;;;;;;5088117;28;20044;-74
2021/11/11 01:52:18;;;;;;;8.98;1.58;;;19.70;99.90;;;;;;5082231;28;20032;-74
2021/11/11 01:54:45;;;;;;;9.55;1.83;;;19.70;99.90;;;;;;5092298;28;20068;-73
2021/11/11 01:57:15;;;;;;;5.45;1.23;;;19.70;99.90;;;;;;5081740;28;20032;-73
2021/11/11 01:59:42;;;;;;;12.27;1.45;;;19.70;99.90;;;;;;5092036;28;20035;-74
2021/11/11 02:02:10;;;;;;;6.75;1.05;;;19.70;99.90;;;;;;5088104;28;20051;-74
2021/11/11 02:04:37;;;;;;;11.50;1.60;;;19.70;99.90;;;;;;5092137;28;20028;-73
2021/11/11 02:07:05;;;;;;;3.22;1.05;;;19.80;99.90;;;;;;5091426;28;20028;-74
2021/11/11 02:09:33;;;;;;;10.50;1.05;;;19.80;99.90;;;;;;5091413;28;20023;-74
2021/11/11 02:12:01;;;;;;;6.25;2.47;;;19.90;99.90;;;;;;5090063;28;20035;-74
2021/11/11 02:14:28;;;;;;;11.88;2.05;;;20.00;99.90;;;;;;5086986;28;20012;-74
2021/11/11 02:16:55;;;;;;;7.57;1.13;;;20.00;99.90;;;;;;5086914;28;20646;-74
2021/11/11 02:19:22;;;;;;;6.18;1.40;;;20.00;99.90;;;;;;5083854;28;20028;-74
2021/11/11 02:21:56;;;;;;;6.35;1.13;;;20.00;99.90;;;;;;5089705;28;20084;-75
2021/11/11 02:24:23;;;;;;;10.18;1.77;;;19.90;99.90;;;;;;5081248;28;20032;-75
2021/11/11 02:26:51;;;;;;;8.57;1.33;;;19.70;99.90;;;;;;5090828;28;20028;-75
2021/11/11 02:29:19;;;;;;;3.90;1.83;;;19.70;99.90;;;;;;5091198;28;20031;-75
2021/11/11 02:31:47;;;;;;;7.50;1.48;;;19.60;99.90;;;;;;5090776;28;20029;-75
2021/11/11 02:34:17;;;;;;;10.35;1.02;;;19.60;99.90;;;;;;5090602;28;20098;-75
2021/11/11 02:37:04;;;;;;;8.30;1.63;;;19.50;99.90;;;;;;5087850;28;20371;-75
2021/11/11 02:39:34;;;;;;;8.73;1.65;;;19.40;99.90;;;;;;5085261;28;20080;-75
2021/11/11 02:42:02;;;;;;;8.02;1.15;;;19.40;99.90;;;;;;5089544;28;20088;-74
2021/11/11 02:44:31;;;;;;;8.25;1.52;;;19.50;99.90;;;;;;5091115;28;20081;-75
2021/11/11 02:46:59;;;;;;;6.93;1.33;;;19.60;99.90;;;;;;5078045;28;20024;-75
2021/11/11 02:49:33;;;;;;;10.55;1.05;;;19.60;99.90;;;;;;5077144;28;20039;-75
2021/11/11 02:52:01;;;;;;;7.22;1.13;;;19.70;99.90;;;;;;5090040;28;20102;-74
2021/11/11 02:54:29;;;;;;;8.15;1.17;;;19.60;99.90;;;;;;5084143;28;20031;-74
2021/11/11 02:56:56;;;;;;;14.77;1.85;;;19.50;99.90;;;;;;5082127;28;20036;-74
2021/11/11 02:59:23;;;;;;;6.20;1.73;;;19.50;99.90;;;;;;5086208;28;20032;-74
2021/11/11 03:01:51;;;;;;;9.63;1.45;;;19.40;99.90;;;;;;5081391;28;20039;-74
2021/11/11 03:04:18;;;;;;;5.88;1.20;;;19.40;99.90;;;;;;5088995;28;20089;-75
2021/11/11 03:06:51;;;;;;;10.32;2.13;;;19.40;99.90;;;;;;5082720;28;20115;-74
2021/11/11 03:09:19;;;;;;;1.83;1.10;;;19.40;99.90;;;;;;5090714;28;20031;-74
2021/11/11 03:11:49;;;;;;;7.22;1.42;;;19.40;99.90;;;;;;5083540;28;20081;-75
2021/11/11 03:14:16;;;;;;;7.97;2.35;;;19.30;99.90;;;;;;5059231;28;20031;-75
2021/11/11 03:16:43;;;;;;;7.15;1.52;;;19.30;99.90;;;;;;5085881;28;20099;-75
2021/11/11 03:19:11;;;;;;;5.45;1.88;;;19.30;99.90;;;;;;5082066;28;20051;-74
2021/11/11 03:21:38;;;;;;;3.17;0.90;;;19.30;99.90;;;;;;5080178;28;20031;-74
2021/11/11 03:24:06;;;;;;;8.85;1.77;;;19.20;99.90;;;;;;5080599;28;20024;-76
2021/11/11 03:26:37;;;;;;;7.78;1.10;;;19.20;99.90;;;;;;5063442;28;20398;-75
2021/11/11 03:29:04;;;;;;;6.80;1.67;;;19.20;99.90;;;;;;5078033;28;20443;-76
2021/11/11 03:31:32;;;;;;;4.95;1.38;;;19.20;99.90;;;;;;5076111;28;20040;-75
2021/11/11 03:33:59;;;;;;;14.95;1.42;;;19.10;99.90;;;;;;5078526;28;20044;-76
2021/11/11 03:36:27;;;;;;;12.35;2.67;;;19.10;99.90;;;;;;5078641;28;20043;-74
2021/11/11 03:38:54;;;;;;;10.63;1.10;;;18.90;99.90;;;;;;5082330;28;20551;-76
2021/11/11 03:41:22;;;;;;;3.28;1.05;;;19.00;99.90;;;;;;5076122;28;20057;-75
2021/11/11 03:43:49;;;;;;;9.73;1.00;;;19.00;99.90;;;;;;5084300;28;20084;-75
2021/11/11 03:46:17;;;;;;;5.60;1.00;;;19.00;99.90;;;;;;5078824;28;20024;-74
2021/11/11 03:48:45;;;;;;;9.00;1.85;;;19.00;99.90;;;;;;5063418;28;20032;-74
2021/11/11 03:51:12;;;;;;;2.30;0.85;;;19.10;99.90;;;;;;5064515;28;20031;-74
2021/11/11 03:53:40;;;;;;;8.32;1.13;;;19.10;99.90;;;;;;5079987;28;20082;-74
2021/11/11 03:56:07;;;;;;;8.73;1.30;;;19.10;99.90;;;;;;5081897;28;20031;-74
2021/11/11 03:58:35;;;;;;;11.38;2.67;;;19.10;99.90;;;;;;5075981;28;20471;-75
2021/11/11 04:01:02;;;;;;;6.75;1.10;;;19.10;99.90;;;;;;5077198;28;20029;-76
2021/11/11 04:03:30;;;;;;;5.15;0.98;;;19.10;99.90;;;;;;5076440;28;20485;-75
2021/11/11 04:05:58;;;;;;;9.25;1.60;;;18.90;99.90;;;;;;5074962;28;20089;-75
2021/11/11 04:08:25;;;;;;;6.35;1.17;;;18.80;99.90;;;;;;5067398;28;20024;-76
2021/11/11 04:10:52;;;;;;;9.32;1.15;;;18.90;99.90;;;;;;5080718;28;20019;-74
2021/11/11 04:13:21;;;;;;;9.48;2.33;;;18.90;99.90;;;;;;5084145;28;20055;-77
2021/11/11 04:15:48;;;;;;;12.13;1.98;;;18.90;99.90;;;;;;5055781;28;20028;-76
2021/11/11 04:18:16;;;;;;;8.70;1.52;;;18.80;99.90;;;;;;5079954;28;20020;-77
2021/11/11 04:20:43;;;;;;;5.47;0.95;;;18.70;99.90;;;;;;5077020;28;20133;-73
2021/11/11 04:23:11;;;;;;;5.10;1.75;;;18.50;99.90;;;;;;5079769;28;20139;-74
2021/11/11 04:28:30;;;;;;;5.50;2.13;;;18.50;99.90;;;;;;5086845;28;20034;-74
2021/11/11 04:31:01;;;;;;;8.13;0.93;;;18.60;99.90;;;;;;5082099;28;20025;-75
2021/11/11 04:33:29;;;;;;;7.97;1.05;;;18.60;99.90;;;;;;5081380;28;20056;-77
2021/11/11 04:36:01;;;;;;;8.40;1.23;;;18.70;99.90;;;;;;5077039;28;20102;-75
2021/11/11 04:44:26;;;;;;;4.55;1.05;;;18.80;99.90;;;;;;5080076;28;20486;-74
2021/11/11 04:49:57;;;;;;;9.07;1.27;;;18.70;99.90;;;;;;5079154;28;20024;-76
2021/11/11 04:52:39;;;;;;;6.50;2.03;;;18.60;99.90;;;;;;5060807;28;20048;-75
2021/11/11 05:05:35;;;;;;;8.48;1.25;;;18.50;99.90;;;;;;5072822;28;20028;-74
2021/11/11 05:08:03;;;;;;;2.95;0.90;;;18.50;99.90;;;;;;5065069;28;20406;-74
2021/11/11 05:10:31;;;;;;;4.57;1.33;;;18.60;99.90;;;;;;5081088;28;20047;-76
2021/11/11 05:12:58;;;;;;;11.15;1.77;;;18.60;99.90;;;;;;5077964;28;20498;-76
2021/11/11 05:15:26;;;;;;;7.50;1.38;;;18.60;99.90;;;;;;5077094;28;20419;-77
2021/11/11 05:17:53;;;;;;;6.30;1.15;;;18.40;99.90;;;;;;5078154;28;20021;-76
2021/11/11 05:20:21;;;;;;;7.40;2.25;;;18.30;99.90;;;;;;5078281;28;20062;-75
2021/11/11 05:22:50;;;;;;;4.93;1.55;;;18.20;99.90;;;;;;5082178;28;20047;-76
2021/11/11 05:25:18;;;;;;;8.60;1.90;;;18.10;99.90;;;;;;5077980;28;20539;-74
2021/11/11 05:27:45;;;;;;;13.13;2.38;;;18.00;99.90;;;;;;5056448;28;20457;-76
2021/11/11 05:30:15;;;;;;;5.72;2.10;;;18.00;99.90;;;;;;5077081;28;20103;-75
2021/11/11 05:32:42;;;;;;;12.65;2.28;;;18.00;99.90;;;;;;5079023;28;20040;-75
2021/11/11 05:35:12;;;;;;;9.60;2.67;;;18.10;99.90;;;;;;5078031;28;20047;-76
2021/11/11 05:37:39;;;;;;;13.68;2.83;;;18.00;99.90;;;;;;5085614;28;20025;-75
2021/11/11 05:40:08;;;;;;;9.25;2.42;;;17.90;99.90;;;;;;5088344;28;20047;-75
2021/11/11 05:42:36;;;;;;;7.78;2.33;;;17.90;99.90;;;;;;5067425;28;20107;-74
2021/11/11 05:45:06;;;;;;;13.48;3.13;;;17.90;99.90;;;;;;5079959;28;20028;-75
2021/11/11 05:47:33;;;;;;;10.85;2.58;;;17.80;99.90;;;;;;5089132;28;20038;-73
2021/11/11 05:50:00;;;;;;;13.38;2.85;;;17.90;99.90;;;;;;5085080;28;20028;-79
2021/11/11 05:52:28;;;;;;;10.27;2.95;;;17.80;99.90;;;;;;5077618;28;20036;-75
2021/11/11 05:54:55;;;;;;;11.60;4.55;;;17.80;99.90;;;;;;5082676;28;20381;-74
2021/11/11 05:57:22;;;;;;;8.77;3.10;;;17.70;99.90;;;;;;5082002;28;20028;-74
2021/11/11 05:59:50;;;;;;;13.43;4.63;;;17.60;99.90;;;;;;5078119;28;20106;-75
2021/11/11 06:02:17;;;;;;;6.00;2.78;;;17.50;99.90;;;;;;5085542;28;20107;-74
2021/11/11 06:04:45;;;;;;;14.20;3.53;;;17.50;99.90;;;;;;5080655;28;20027;-77
2021/11/11 06:07:13;;;;;;;10.00;3.45;;;17.40;99.90;;;;;;5082761;28;20047;-75
2021/11/11 06:09:40;;;;;;;9.52;3.72;;;17.30;99.90;;;;;;5088836;28;20023;-75
2021/11/11 06:12:08;;;;;;;14.88;5.13;;;17.30;99.90;;;;;;5089514;28;20372;-74
2021/11/11 06:14:35;;;;;;;9.57;3.85;;;17.30;99.90;;;;;;5087859;28;20467;-74
2021/11/11 06:17:06;;;;;;;10.27;4.30;;;17.40;99.90;;;;;;5064708;28;20027;-76
2021/11/11 06:19:41;;;;;;;7.63;3.33;;;17.40;99.90;;;;;;5088500;28;20042;-75
2021/11/11 06:22:08;;;;;;;7.32;3.22;;;17.50;99.90;;;;;;5086138;28;20663;-74
2021/11/11 06:24:35;;;;;;;7.10;4.35;;;17.50;99.90;;;;;;5091886;28;20031;-75
2021/11/11 06:27:04;;;;;;;10.18;3.85;;;17.40;99.90;;;;;;5087432;28;20028;-75
2021/11/11 06:29:31;;;;;;;11.00;3.60;;;17.40;99.90;;;;;;5090668;28;20024;-74
2021/11/11 06:32:00;;;;;;;9.68;3.47;;;17.30;99.90;;;;;;5090175;28;20040;-75
2021/11/11 06:34:27;;;;;;;7.97;4.10;;;17.30;99.90;;;;;;5080942;28;20052;-73
2021/11/11 06:36:55;;;;;;;11.55;3.67;;;17.30;99.90;;;;;;5080676;28;20023;-73
2021/11/11 06:39:22;;;;;;;13.75;3.80;;;17.30;99.90;;;;;;5078595;28;20034;-74
2021/11/11 06:41:50;;;;;;;7.10;3.47;;;17.30;99.90;;;;;;5085047;28;20048;-73
2021/11/11 06:44:23;;;;;;;11.18;4.65;;;17.20;99.90;;;;;;5081856;28;21867;-74
2021/11/11 06:46:53;;;;;;;12.60;4.22;;;17.20;99.90;;;;;;5086196;28;20385;-74
2021/11/11 06:49:21;;;;;;;10.77;3.08;;;17.20;99.90;;;;;;5092273;28;20028;-75
2021/11/11 06:51:48;;;;;;;10.40;3.30;;;17.30;99.90;;;;;;5082986;28;20028;-75
2021/11/11 06:54:16;;;;;;;14.75;3.83;;;17.30;99.90;;;;;;5092197;28;20020;-74
2021/11/11 06:56:43;;;;;;;8.35;3.33;;;17.30;99.90;;;;;;5079148;28;20029;-74
2021/11/11 06:59:10;;;;;;;11.98;3.92;;;17.20;99.90;;;;;;5086905;28;20501;-76
2021/11/11 07:01:38;;;;;;;16.00;6.18;;;17.20;99.90;;;;;;5092398;28;20557;-76
2021/11/11 07:04:05;;;;;;;11.60;5.15;;;17.10;99.90;;;;;;5090179;28;20027;-75
2021/11/11 07:06:33;;;;;;;9.10;4.60;;;16.90;99.90;;;;;;5090452;28;20063;-78
2021/11/11 07:09:02;;;;;;;19.75;7.22;;;16.90;99.90;;;;;;5089737;28;20024;-77
2021/11/11 07:11:29;;;;;;;12.07;4.43;;;16.90;99.90;;;;;;5086065;28;20032;-79
2021/11/11 07:13:57;;;;;;;8.88;3.25;;;16.90;99.90;;;;;;5093342;28;20141;-76
2021/11/11 07:16:24;;;;;;;10.43;3.45;;;16.90;99.90;;;;;;5091918;28;20027;-78
2021/11/11 07:18:52;;;;;;;5.07;3.28;;;16.90;99.90;;;;;;5092435;28;20135;-76
2021/11/11 07:21:19;;;;;;;8.52;3.47;;;16.90;99.90;;;;;;5083009;28;20066;-76
2021/11/11 07:23:46;;;;;;;9.73;3.65;;;16.90;99.90;;;;;;5080788;28;20024;-74
2021/11/11 07:26:14;;;;;;;11.77;3.35;;;16.90;99.90;;;;;;5082538;28;20036;-77
2021/11/11 07:28:41;;;;;;;11.35;2.95;;;16.90;99.90;;;;;;5081877;28;20031;-77
2021/11/11 07:31:09;;;;;;;12.93;3.63;;;16.90;99.90;;;;;;5082072;28;20035;-73
2021/11/11 07:33:36;;;;;;;8.55;2.63;;;16.90;99.90;;;;;;5078492;28;20060;-75
2021/11/11 07:36:04;;;;;;;8.57;2.95;;;16.90;99.90;;;;;;5080547;28;20108;-74
2021/11/11 07:38:32;;;;;;;12.32;2.92;;;16.90;99.90;;;;;;5081475;28;20085;-75
2021/11/11 07:40:59;;;;;;;9.25;2.83;;;16.90;99.90;;;;;;5081234;28;20023;-75
2021/11/11 07:43:27;;;;;;;4.60;2.13;;;16.80;99.90;;;;;;5076014;28;20112;-74
2021/11/11 07:45:54;;;;;;;9.35;2.45;;;16.80;99.90;;;;;;5077895;28;20493;-74
2021/11/11 07:48:22;;;;;;;6.15;2.95;;;16.70;99.90;;;;;;5078028;28;20036;-76
2021/11/11 07:50:51;;;;;;;12.95;3.40;;;16.70;99.90;;;;;;5058594;28;20050;-72
2021/11/11 07:53:19;;;;;;;5.72;2.25;;;16.60;99.90;;;;;;5078185;28;20139;-80
2021/11/11 07:55:46;;;;;;;6.63;3.08;;;16.40;99.90;;;;;;5082011;28;20031;-77
2021/11/11 07:58:14;;;;;;;8.60;2.53;;;16.30;99.90;;;;;;5079551;28;20032;-74
2021/11/11 08:00:41;;;;;;;7.63;2.33;;;16.20;99.90;;;;;;5078402;28;20467;-76
2021/11/11 08:03:09;;;;;;;5.90;3.00;;;16.20;99.90;;;;;;5078781;28;20027;-76
2021/11/11 08:05:37;;;;;;;10.45;3.38;;;16.10;99.90;;;;;;5076081;28;20498;-76
2021/11/11 08:08:05;;;;;;;9.30;3.90;;;16.10;99.90;;;;;;5082179;28;20435;-77
2021/11/11 08:10:34;;;;;;;12.75;3.42;;;16.10;99.90;;;;;;5078879;28;20931;-78
2021/11/11 08:13:01;;;;;;;14.27;5.32;;;16.00;99.90;;;;;;5081876;28;20036;-72
2021/11/11 08:15:28;;;;;;;8.77;4.43;;;16.00;99.90;;;;;;5083333;28;20566;-76
2021/11/11 08:17:58;;;;;;;11.88;4.53;;;15.90;99.90;;;;;;5076175;28;20028;-75
2021/11/11 08:20:26;;;;;;;8.57;4.75;;;15.90;99.90;;;;;;5078625;28;20039;-78
2021/11/11 08:22:53;;;;;;;17.55;5.47;;;16.00;99.90;;;;;;5082654;28;20111;-79
2021/11/11 08:25:21;;;;;;;8.07;5.28;;;15.90;99.90;;;;;;5081794;28;20082;-80
2021/11/11 08:27:52;;;;;;;8.60;5.18;;;15.90;99.90;;;;;;5086223;28;20024;-77
2021/11/11 08:30:20;;;;;;;11.45;5.85;;;15.90;99.90;;;;;;5080693;28;20050;-74
2021/11/11 08:32:51;;;;;;;8.65;3.78;;;15.80;99.90;;;;;;5084472;28;20071;-81
2021/11/11 08:35:20;;;;;;;9.90;3.13;;;15.80;99.90;;;;;;5078161;28;20029;-76
2021/11/11 08:37:48;;;;;;;7.50;3.92;;;15.80;99.90;;;;;;5080502;28;20555;-76
2021/11/11 08:40:17;;;;;;;12.35;4.97;;;15.80;99.90;;;;;;5080199;28;20024;-75
2021/11/11 08:42:47;;;;;;;19.20;5.35;;;15.80;99.90;;;;;;5076806;28;20032;-76
2021/11/11 08:45:15;;;;;;;12.45;4.20;;;15.70;99.90;;;;;;5078623;28;20039;-75
2021/11/11 08:47:42;;;;;;;5.85;2.88;;;15.70;99.90;;;;;;5085094;28;20022;-75
2021/11/11 08:50:11;;;;;;;6.90;2.78;;;15.70;99.90;;;;;;5077896;28;20419;-78
2021/11/11 08:52:48;;;;;;;7.90;3.17;;;15.70;99.90;;;;;;5082407;28;20098;-74
2021/11/11 08:55:18;;;;;;;4.68;2.50;;;15.70;99.90;;;;;;5075962;28;20025;-73
2021/11/11 08:57:46;;;;;;;13.80;3.35;;;15.70;99.90;;;;;;5080542;28;20035;-75
2021/11/11 09:00:17;;;;;;;7.95;4.25;;;15.70;99.90;;;;;;5083718;28;20437;-76
2021/11/11 09:02:50;;;;;;;12.35;3.33;;;15.70;99.90;;;;;;5085654;28;20082;-74
2021/11/11 09:05:18;;;;;;;5.28;1.92;;;15.70;99.90;;;;;;5082493;28;20420;-75
2021/11/11 09:07:47;;;;;;;5.47;1.88;;;15.60;99.90;;;;;;5083768;28;20031;-77
2021/11/11 09:10:18;;;;;;;6.05;2.20;;;15.60;99.90;;;;;;5087078;28;20372;-76
2021/11/11 09:12:47;;;;;;;5.70;2.35;;;15.60;99.90;;;;;;5081708;28;20086;-73
2021/11/11 09:15:16;;;;;;;6.53;2.88;;;15.60;99.90;;;;;;5080762;28;20024;-73
2021/11/11 09:17:44;;;;;;;6.60;2.17;;;15.50;99.90;;;;;;5077305;28;20036;-77
2021/11/11 09:20:15;;;;;;;11.73;3.33;;;15.50;99.90;;;;;;5076482;28;20059;-73
2021/11/11 09:22:43;;;;;;;6.55;2.70;;;15.50;99.90;;;;;;5050576;28;20020;-76
2021/11/11 09:25:12;;;;;;;7.75;2.65;;;15.50;99.90;;;;;;5088006;28;20027;-74
2021/11/11 09:27:41;;;;;;;8.00;5.40;;;15.40;99.90;;;;;;5082071;28;20059;-75
2021/11/11 09:30:13;;;;;;;11.43;7.72;;;15.40;99.90;;;;;;5087117;28;20103;-75
2021/11/11 09:32:42;;;;;;;11.95;7.20;;;15.40;99.90;;;;;;5090898;28;20048;-76
2021/11/11 09:35:10;;;;;;;9.10;5.57;;;15.30;99.90;;;;;;5085410;28;20024;-74
2021/11/11 09:37:39;;;;;;;10.55;8.85;;;15.30;99.90;;;;;;5082612;28;20024;-77
2021/11/11 09:40:10;;;;;;;18.67;13.43;;;15.20;99.90;;;;;;5058954;28;20695;-74
2021/11/11 09:42:37;;;;;;;11.45;4.57;;;15.20;99.90;;;;;;5089087;28;20089;-74
2021/11/11 09:45:07;;;;;;;5.38;2.97;;;15.20;99.90;;;;;;5093385;28;20103;-75
2021/11/11 09:47:35;;;;;;;12.52;2.63;;;15.10;99.90;;;;;;5089245;28;20083;-78
2021/11/11 09:50:04;;;;;;;10.68;2.50;;;15.10;99.90;;;;;;5090728;28;20024;-78
2021/11/11 09:52:31;;;;;;;4.93;1.70;;;15.10;99.90;;;;;;5088794;28;20032;-76
2021/11/11 10:00:30;;;;;;;9.40;1.90;;;14.90;99.90;;;;;;5087046;28;20047;-77
2021/11/11 10:02:57;;;;;;;7.05;2.15;;;14.80;99.90;;;;;;5079606;28;20084;-76
2021/11/11 10:05:25;;;;;;;7.80;1.90;;;14.80;99.90;;;;;;5088960;28;20028;-75
2021/11/11 10:07:52;;;;;;;6.88;2.60;;;14.80;99.90;;;;;;5089777;28;20016;-75
2021/11/11 10:10:38;;;;;;;8.50;1.63;;;14.80;99.90;;;;;;5088808;28;20115;-79
2021/11/11 10:13:16;;;;;;;8.68;1.70;;;14.80;99.90;;;;;;5087710;28;20044;-78
2021/11/11 10:16:10;;;;;;;8.85;1.33;;;14.90;99.90;;;;;;5087927;28;20392;-79
2021/11/11 10:18:44;;;;;;;5.82;1.38;;;14.90;99.90;;;;;;5083163;28;20020;-76
2021/11/11 10:21:39;;;;;;;3.42;1.08;;;14.90;99.90;;;;;;5086077;28;20020;-75
2021/11/11 10:24:12;;;;;;;2.78;1.25;;;14.90;99.90;;;;;;5091462;28;20035;-74
2021/11/11 10:26:43;;;;;;;9.32;2.42;;;14.90;99.90;;;;;;5085491;28;20036;-79
2021/11/11 10:29:29;;;;;;;4.43;3.55;;;15.00;99.90;;;;;;5085410;28;20092;-78
2021/11/11 10:32:02;;;;;;;10.65;3.65;;;15.00;99.90;;;;;;5083726;28;21729;-78
2021/11/11 10:34:30;;;;;;;7.35;3.03;;;15.00;99.90;;;;;;5084183;28;20077;-77
2021/11/11 10:36:59;;;;;;;9.50;2.50;;;14.90;99.90;;;;;;5084467;28;20034;-76
2021/11/11 10:39:31;;;;;;;7.90;1.40;;;15.00;99.90;;;;;;5083269;28;20127;-78
2021/11/11 10:42:12;;;;;;;5.50;1.83;;;14.90;99.90;;;;;;5085212;28;20089;-76
2021/11/11 10:44:40;;;;;;;7.88;1.42;;;15.00;99.90;;;;;;5084859;28;20039;-75
2021/11/11 10:47:12;;;;;;;7.47;1.70;;;15.00;99.90;;;;;;5082825;28;20055;-76
2021/11/11 10:49:44;;;;;;;6.35;1.60;;;15.00;99.90;;;;;;5081423;28;20032;-77
2021/11/11 10:52:28;;;;;;;8.52;1.80;;;15.00;99.90;;;;;;5094980;28;20064;-78
2021/11/11 10:55:13;;;;;;;2.15;1.00;;;15.00;99.90;;;;;;5086007;28;20115;-76
2021/11/11 10:57:43;;;;;;;7.85;2.00;;;15.00;99.90;;;;;;5082684;28;20028;-76
2021/11/11 11:00:20;;;;;;;5.68;1.95;;;15.00;99.90;;;;;;5087529;28;20035;-79
2021/11/11 11:02:55;;;;;;;5.55;1.38;;;15.00;99.90;;;;;;5086238;28;20028;-77
2021/11/11 11:05:29;;;;;;;3.92;0.88;;;15.00;99.90;;;;;;5090198;28;20028;-78
2021/11/11 11:08:02;;;;;;;7.85;1.30;;;15.00;99.90;;;;;;5088287;28;20028;-78
2021/11/11 11:10:32;;;;;;;2.22;1.23;;;15.00;99.90;;;;;;5068863;28;20556;-80
2021/11/11 11:13:04;;;;;;;1.70;0.73;;;15.00;99.90;;;;;;5083646;28;20040;-77
2021/11/11 11:15:45;;;;;;;3.58;1.10;;;15.00;99.90;;;;;;5087856;28;20039;-75
2021/11/11 11:18:14;;;;;;;3.05;1.30;;;15.00;99.90;;;;;;5086370;28;20044;-80
2021/11/11 11:20:43;;;;;;;5.43;2.30;;;15.00;99.90;;;;;;5068664;28;20028;-79
2021/11/11 11:23:42;;;;;;;7.13;1.45;;;15.00;99.90;;;;;;5068493;28;20463;-77
2021/11/11 11:26:16;;;;;;;3.63;1.30;;;14.90;99.90;;;;;;5057957;28;20481;-76
2021/11/11 11:29:00;;;;;;;3.92;2.42;;;14.90;99.90;;;;;;5085136;28;20518;-77
2021/11/11 11:31:39;;;;;;;3.80;2.00;;;15.00;99.90;;;;;;5085090;28;20059;-78
2021/11/11 11:34:09;;;;;;;9.35;2.78;;;14.90;99.90;;;;;;5089189;28;20052;-80
2021/11/11 11:36:50;;;;;;;2.83;0.93;;;14.90;99.90;;;;;;5089494;28;20023;-84
2021/11/11 11:39:31;;;;;;;5.03;1.40;;;14.90;99.90;;;;;;5086952;28;20040;-78
2021/11/11 11:42:08;;;;;;;2.67;1.10;;;14.90;99.90;;;;;;5084670;28;20031;-76
2021/11/11 11:44:39;;;;;;;4.78;1.13;;;14.90;99.90;;;;;;5061684;28;20552;-77
2021/11/11 11:47:30;;;;;;;3.88;1.15;;;14.80;99.90;;;;;;5084017;28;20024;-75
2021/11/11 11:50:10;;;;;;;2.70;1.15;;;14.90;99.90;;;;;;5084523;28;20668;-80
2021/11/11 11:52:40;;;;;;;5.75;1.15;;;14.80;99.90;;;;;;5088036;28;20039;-74
2021/11/11 11:55:14;;;;;;;1.25;0.52;;;14.90;99.90;;;;;;5083221;28;20032;-77
2021/11/11 11:58:02;;;;;;;3.65;1.05;;;14.80;99.90;;;;;;5086288;28;20080;-76
2021/11/11 12:40:00;;;;;;;4.28;1.60;;;14.80;99.90;;;;;;5089538;28;20070;-75
2021/11/11 12:42:40;;;;;;;3.90;1.20;;;14.80;99.90;;;;;;5061258;28;20407;-75
2021/11/11 12:45:35;;;;;;;7.53;1.88;;;14.70;99.90;;;;;;5090898;28;20058;-72
2021/11/11 12:48:15;;;;;;;6.72;2.30;;;14.50;99.90;;;;;;5088773;28;20085;-73
2021/11/11 12:51:01;;;;;;;3.75;1.85;;;14.40;99.90;;;;;;5080740;28;20028;-74
2021/11/11 12:53:38;;;;;;;7.03;1.98;;;14.30;99.90;;;;;;5079674;28;20094;-72
2021/11/11 12:56:10;;;;;;;11.85;3.35;;;14.30;99.90;;;;;;5080706;28;20020;-73
2021/11/11 12:58:48;;;;;;;9.20;2.70;;;14.20;99.90;;;;;;5086532;28;20491;-75
2021/11/11 13:01:24;;;;;;;7.07;2.50;;;14.20;99.90;;;;;;5080723;28;20016;-76
2021/11/11 13:04:03;;;;;;;6.10;1.90;;;14.20;99.90;;;;;;5081723;28;20081;-74
2021/11/11 13:06:37;;;;;;;3.38;1.48;;;14.10;99.90;;;;;;5085527;28;20020;-75
2021/11/11 13:09:12;;;;;;;5.10;1.55;;;14.00;99.90;;;;;;5088133;28;20111;-73
2021/11/11 13:11:44;;;;;;;6.95;1.27;;;14.00;99.90;;;;;;5080455;28;20028;-73
2021/11/11 13:14:23;;;;;;;4.18;2.35;;;13.90;99.90;;;;;;5086153;28;20038;-74
2021/11/11 13:16:56;;;;;;;5.47;1.10;;;13.90;99.90;;;;;;5086024;28;20025;-75
2021/11/11 13:19:37;;;;;;;6.90;0.95;;;13.80;99.90;;;;;;5082301;28;20039;-72
2021/11/11 13:22:21;;;;;;;9.32;1.00;;;13.70;99.90;;;;;;5090062;28;20379;-75
2021/11/11 16:26:41;;;;;;;1.55;0.68;;;13.00;99.90;;;;;;5084196;28;20028;-73
2021/11/11 16:29:09;;;;;;;4.13;0.90;;;13.00;99.90;;;;;;5083082;28;20103;-75
2021/11/11 16:31:37;;;;;;;3.47;0.63;;;12.90;99.90;;;;;;5078724;28;20037;-74
2021/11/11 16:34:04;;;;;;;1.05;0.40;;;13.00;99.90;;;;;;5083669;28;20048;-74
2021/11/11 16:36:33;;;;;;;2.83;0.40;;;13.00;99.90;;;;;;5083068;28;20031;-79
2021/11/11 16:39:00;;;;;;;1.63;0.40;;;13.00;99.90;;;;;;5092728;28;20152;-73
2021/11/11 16:41:29;;;;;;;2.35;0.50;;;12.90;99.90;;;;;;5058377;28;20089;-74
2021/11/11 16:43:56;;;;;;;3.15;0.50;;;12.90;99.90;;;;;;5072720;28;20538;-73
2021/11/11 16:46:24;;;;;;;4.35;0.65;;;13.00;99.90;;;;;;5081192;28;20054;-73
2021/11/11 16:48:51;;;;;;;1.80;0.70;;;13.00;99.90;;;;;;5091836;28;20020;-73
2021/11/11 16:51:19;;;;;;;2.30;0.70;;;13.00;99.90;;;;;;5090142;28;20032;-75
2021/11/11 16:53:46;;;;;;;1.80;0.57;;;13.00;99.90;;;;;;5077403;28;20036;-77
2021/11/11 16:56:14;;;;;;;0.80;0.50;;;13.00;99.90;;;;;;5080320;28;20020;-75
2021/11/11 16:58:43;;;;;;;0.60;0.30;;;13.00;99.90;;;;;;5091527;28;20074;-74
2021/11/11 17:01:11;;;;;;;2.78;0.43;;;12.90;99.90;;;;;;5085527;28;20425;-76
2021/11/11 17:03:39;;;;;;;3.58;0.52;;;12.90;99.90;;;;;;5085454;28;20101;-74
2021/11/11 17:06:06;;;;;;;0.50;0.30;;;12.90;99.90;;;;;;5084043;28;20031;-74
2021/11/11 17:08:33;;;;;;;1.05;0.43;;;12.80;99.90;;;;;;5073240;28;20063;-73